Time;durP1;ratioP1;P1;durP2;ratioP2;P2;SDS_P1;SDS_P2;PMS_P1;PMS_P2;Temp;Humidity;BMP_temperature;BMP_pressure;BME280_temperature;BME280_humidity;BME280_pressure;Samples;Min_cycle;Max_cycle;Signal;HPM_P1;HPM_P2
2021/09/19 00:00:00;;;;;;;1.30;1.17;;;;;;;21.25;44.79;98599.73;1685696;82;21068;-45
2021/09/19 00:02:26;;;;;;;4.72;0.80;;;;;;;21.25;44.82;98597.06;1658425;84;21106;-45
2021/09/19 00:04:53;;;;;;;1.00;0.88;;;;;;;21.25;44.78;98593.52;1711343;82;21075;-45
2021/09/19 00:07:20;;;;;;;2.00;0.90;;;;;;;21.26;44.77;98593.88;1700325;83;21124;-45
2021/09/19 00:09:48;;;;;;;0.90;0.90;;;;;;;21.25;44.77;98590.84;1676145;83;21412;-45
2021/09/19 00:12:15;;;;;;;1.00;0.85;;;;;;;21.24;44.78;98591.34;1667032;83;21000;-46
2021/09/19 00:14:43;;;;;;;0.80;0.80;;;;;;;21.25;44.75;98590.84;1707217;82;21632;-45
2021/09/19 00:17:10;;;;;;;1.90;1.02;;;;;;;21.23;44.71;98590.15;1703529;82;21060;-45
2021/09/19 00:19:38;;;;;;;1.07;1.00;;;;;;;21.23;44.71;98594.16;1688235;82;21055;-44
2021/09/19 00:22:04;;;;;;;1.15;0.85;;;;;;;21.23;44.70;98595.50;1672525;82;21099;-45
2021/09/19 00:24:31;;;;;;;1.15;1.05;;;;;;;21.23;44.69;98594.16;1632265;85;20997;-46
2021/09/19 00:27:00;;;;;;;0.80;0.72;;;;;;;21.22;44.66;98596.00;1627867;85;21150;-45
2021/09/19 00:29:26;;;;;;;0.85;0.70;;;;;;;21.23;44.64;98595.50;1634624;85;21325;-45
2021/09/19 00:31:52;;;;;;;2.45;0.85;;;;;;;21.22;44.62;98592.49;1656776;85;21068;-44
2021/09/19 00:34:19;;;;;;;0.90;0.90;;;;;;;21.23;44.59;98594.16;1669813;84;21063;-45
2021/09/19 00:36:46;;;;;;;1.42;1.05;;;;;;;21.23;44.57;98598.17;1668690;85;21656;-44
2021/09/19 00:39:12;;;;;;;0.98;0.93;;;;;;;21.23;44.56;98599.52;1670520;83;21116;-45
2021/09/19 00:41:40;;;;;;;1.65;1.10;;;;;;;21.23;44.52;98595.50;1640050;85;21326;-44
2021/09/19 00:44:08;;;;;;;1.32;0.60;;;;;;;21.22;44.51;98596.00;1623862;85;21133;-44
2021/09/19 00:46:35;;;;;;;1.87;1.12;;;;;;;21.24;44.51;98601.21;1653772;85;21447;-46
2021/09/19 00:49:02;;;;;;;1.27;0.90;;;;;;;21.22;44.51;98596.51;1653848;85;21118;-46
2021/09/19 00:51:31;;;;;;;1.12;0.90;;;;;;;21.22;44.49;98600.02;1661984;85;21051;-45
2021/09/19 00:53:57;;;;;;;1.00;0.78;;;;;;;21.21;44.54;98602.33;1637552;86;21058;-45
2021/09/19 00:56:27;;;;;;;0.85;0.85;;;;;;;21.21;44.51;98600.16;1671803;85;20994;-45
2021/09/19 00:58:57;;;;;;;0.72;0.68;;;;;;;21.21;44.51;98601.49;1676435;84;21032;-45
2021/09/19 01:01:25;;;;;;;2.72;0.90;;;;;;;21.20;44.51;98605.14;1669671;84;21029;-46
2021/09/19 01:03:52;;;;;;;1.87;0.95;;;;;;;21.20;44.50;98603.80;1665352;84;21117;-46
2021/09/19 01:06:21;;;;;;;2.85;1.10;;;;;;;21.20;44.54;98602.47;1668839;83;21127;-44
2021/09/19 01:08:48;;;;;;;0.88;0.78;;;;;;;21.19;44.59;98608.32;1625906;85;21179;-44
2021/09/19 01:11:17;;;;;;;1.12;0.90;;;;;;;21.19;44.67;98615.52;1628076;86;21158;-46
2021/09/19 01:13:45;;;;;;;2.10;0.78;;;;;;;21.19;44.73;98610.16;1650796;85;21003;-45
2021/09/19 01:16:12;;;;;;;3.17;0.95;;;;;;;21.18;44.79;98615.15;1678008;84;21961;-44
2021/09/19 01:18:40;;;;;;;1.22;0.80;;;;;;;21.18;44.83;98608.46;1693653;83;21622;-45
2021/09/19 01:21:09;;;;;;;1.02;0.80;;;;;;;21.18;44.89;98612.47;1698280;82;22395;-45
2021/09/19 01:23:38;;;;;;;1.35;0.90;;;;;;;21.17;44.89;98612.14;1701152;82;21080;-45
2021/09/19 01:26:06;;;;;;;1.07;0.70;;;;;;;21.17;44.96;98605.45;1697807;82;21009;-44
2021/09/19 01:28:33;;;;;;;0.78;0.78;;;;;;;21.14;44.99;98606.06;1688549;82;21058;-45
2021/09/19 01:31:01;;;;;;;0.88;0.78;;;;;;;21.15;45.02;98602.92;1683505;82;20953;-45
2021/09/19 01:33:29;;;;;;;1.22;0.80;;;;;;;21.15;45.05;98602.92;1706223;82;21660;-47
2021/09/19 01:35:58;;;;;;;1.02;0.90;;;;;;;21.14;45.05;98602.05;1679804;83;21114;-45
2021/09/19 01:38:26;;;;;;;1.57;1.00;;;;;;;21.14;45.06;98599.37;1691528;83;21050;-45
2021/09/19 01:40:54;;;;;;;1.15;0.80;;;;;;;21.13;45.10;98603.06;1661477;85;21012;-45
2021/09/19 01:43:20;;;;;;;4.83;1.10;;;;;;;21.13;45.11;98597.71;1654727;85;21071;-45
2021/09/19 01:45:48;;;;;;;0.82;0.62;;;;;;;21.13;45.12;98593.70;1648632;83;21106;-44
2021/09/19 01:48:15;;;;;;;0.82;0.80;;;;;;;21.14;45.10;98602.05;1643678;85;21162;-44
2021/09/19 01:50:42;;;;;;;1.22;0.95;;;;;;;21.13;45.15;98597.71;1631198;85;21047;-45
2021/09/19 01:53:09;;;;;;;2.47;0.88;;;;;;;21.13;45.16;98593.70;1686246;83;21098;-45
2021/09/19 01:55:37;;;;;;;0.70;0.70;;;;;;;21.13;45.17;98589.69;1691032;82;21058;-45
2021/09/19 01:58:04;;;;;;;1.45;0.70;;;;;;;21.13;45.21;98591.50;1698375;82;21383;-46
2021/09/19 02:00:31;;;;;;;0.93;0.70;;;;;;;21.12;45.26;98585.31;1666181;82;21099;-47
2021/09/19 02:02:58;;;;;;;2.50;1.20;;;;;;;21.11;45.29;98591.64;1679088;83;21300;-45
2021/09/19 02:05:24;;;;;;;1.15;0.82;;;;;;;21.11;45.34;98592.14;1707668;82;21095;-45
2021/09/19 02:07:50;;;;;;;1.00;0.88;;;;;;;21.10;45.36;98589.97;1642999;81;21091;-45
2021/09/19 02:10:18;;;;;;;1.02;1.00;;;;;;;21.08;45.42;98595.95;1707932;82;21100;-45
2021/09/19 02:12:44;;;;;;;3.05;0.80;;;;;;;21.08;45.50;98589.27;1699707;82;21033;-45
2021/09/19 02:15:13;;;;;;;1.10;1.00;;;;;;;21.07;45.54;98581.39;1714300;82;21055;-46
2021/09/19 02:17:40;;;;;;;1.20;1.10;;;;;;;21.05;45.56;98582.87;1693376;82;21294;-45
2021/09/19 02:20:09;;;;;;;1.85;1.10;;;;;;;21.06;45.55;98577.84;1677192;84;21062;-47
2021/09/19 02:22:35;;;;;;;1.72;1.22;;;;;;;21.08;45.52;98575.91;1643086;85;21116;-46
2021/09/19 02:25:02;;;;;;;1.22;1.12;;;;;;;21.09;45.51;98584.25;1655533;85;21580;-46
2021/09/19 02:27:28;;;;;;;6.05;1.32;;;;;;;21.09;45.51;98581.58;1653729;85;21070;-46
2021/09/19 02:29:57;;;;;;;2.35;1.40;;;;;;;21.10;45.54;98587.80;1656249;85;21169;-47
2021/09/19 02:32:23;;;;;;;1.52;1.35;;;;;;;21.11;45.59;98590.80;1630891;85;21125;-47
2021/09/19 02:34:50;;;;;;;2.17;1.70;;;;;;;21.10;45.62;98589.97;1658485;85;21083;-47
2021/09/19 02:37:18;;;;;;;3.47;2.27;;;;;;;21.11;45.64;98591.64;1667539;84;21516;-46
2021/09/19 02:39:45;;;;;;;5.25;2.17;;;;;;;21.11;45.68;98590.30;1632811;85;21073;-46
2021/09/19 02:42:12;;;;;;;3.22;2.02;;;;;;;21.10;45.70;98589.97;1674181;83;21080;-44
2021/09/19 02:44:40;;;;;;;2.45;1.80;;;;;;;21.08;45.68;98587.94;1651954;85;22110;-44
2021/09/19 02:47:07;;;;;;;2.30;1.70;;;;;;;21.07;45.69;98588.91;1678657;84;21150;-45
2021/09/19 02:49:33;;;;;;;4.47;1.82;;;;;;;21.06;45.70;98580.52;1650364;85;21030;-44
2021/09/19 02:52:02;;;;;;;2.47;1.62;;;;;;;21.03;45.68;98580.84;1677448;85;21592;-45
2021/09/19 02:54:30;;;;;;;2.02;1.80;;;;;;;21.03;45.72;98582.17;1648264;85;21058;-45
2021/09/19 02:56:57;;;;;;;2.35;1.42;;;;;;;21.03;45.75;98579.50;1650832;85;21047;-45
2021/09/19 02:59:25;;;;;;;2.30;1.67;;;;;;;21.02;45.78;98577.80;1694505;82;21564;-44
2021/09/19 03:01:52;;;;;;;3.05;1.70;;;;;;;21.01;45.87;98579.28;1702166;82;21092;-45
2021/09/19 03:04:18;;;;;;;1.47;1.37;;;;;;;20.99;45.89;98578.08;1682915;83;21033;-44
2021/09/19 03:06:44;;;;;;;1.67;1.57;;;;;;;20.99;45.91;98575.41;1648773;84;21112;-44
2021/09/19 03:09:13;;;;;;;3.67;1.85;;;;;;;20.99;45.94;98576.73;1632115;84;21082;-44
2021/09/19 03:11:39;;;;;;;1.85;1.60;;;;;;;20.98;45.98;98575.08;1656277;85;21138;-44
2021/09/19 03:14:07;;;;;;;3.77;1.57;;;;;;;20.97;46.02;98579.55;1661648;85;21146;-44
2021/09/19 03:16:35;;;;;;;3.35;1.82;;;;;;;20.98;46.04;98576.41;1665600;85;21117;-44
2021/09/19 03:19:03;;;;;;;1.75;1.55;;;;;;;20.97;46.05;98578.72;1655259;85;21551;-43
2021/09/19 03:21:31;;;;;;;4.25;1.50;;;;;;;20.97;46.10;98576.05;1654827;85;21091;-45
2021/09/19 03:23:57;;;;;;;1.75;1.65;;;;;;;20.97;46.14;98581.39;1655104;85;23356;-45
2021/09/19 03:26:25;;;;;;;2.17;1.55;;;;;;;20.96;46.19;98583.70;1661535;85;20952;-46
2021/09/19 03:28:53;;;;;;;2.27;1.52;;;;;;;20.95;46.22;98587.38;1639705;84;21059;-48
2021/09/19 03:31:19;;;;;;;1.47;1.27;;;;;;;20.95;46.27;98580.70;1642488;86;21629;-47
2021/09/19 03:33:47;;;;;;;1.50;1.40;;;;;;;20.94;46.28;98586.52;1653733;84;21088;-47
2021/09/19 03:36:14;;;;;;;7.50;1.47;;;;;;;20.93;46.34;98583.98;1671416;83;21289;-47
2021/09/19 03:38:42;;;;;;;1.92;1.25;;;;;;;20.93;46.36;98585.32;1679728;83;21553;-50
2021/09/19 03:41:09;;;;;;;3.22;1.50;;;;;;;20.93;46.52;98590.67;1677297;84;21011;-48
2021/09/19 03:43:36;;;;;;;1.52;1.17;;;;;;;20.92;46.61;98588.50;1679492;84;21212;-45
2021/09/19 03:46:02;;;;;;;3.20;1.22;;;;;;;20.93;46.63;98588.00;1666423;83;21510;-46
2021/09/19 03:48:30;;;;;;;2.75;1.57;;;;;;;20.93;46.61;98583.98;1668707;85;21641;-46
2021/09/19 03:50:56;;;;;;;4.00;1.30;;;;;;;20.91;46.62;98583.29;1670107;83;21059;-47
2021/09/19 03:53:23;;;;;;;1.62;1.30;;;;;;;20.92;46.60;98589.00;1606197;86;21111;-46
2021/09/19 03:55:50;;;;;;;3.85;1.25;;;;;;;20.92;46.72;98587.16;1624799;85;21057;-49
2021/09/19 03:58:17;;;;;;;1.82;1.32;;;;;;;20.92;47.05;98583.66;1649360;85;21475;-47
2021/09/19 04:00:44;;;;;;;3.95;1.75;;;;;;;20.92;47.49;98583.66;1642658;85;21161;-46
2021/09/19 04:03:10;;;;;;;3.80;1.20;;;;;;;20.93;47.86;98585.32;1686317;82;21507;-48
2021/09/19 04:05:38;;;;;;;3.87;1.52;;;;;;;20.92;48.00;98581.81;1663717;83;21034;-47
2021/09/19 04:08:04;;;;;;;2.60;1.32;;;;;;;20.92;47.98;98580.98;1656344;84;21470;-46
2021/09/19 04:10:30;;;;;;;4.25;1.60;;;;;;;20.94;48.58;98586.52;1626546;84;21117;-43
2021/09/19 04:12:57;;;;;;;3.37;1.50;;;;;;;20.98;49.54;98587.11;1690235;82;22226;-46
2021/09/19 04:15:23;;;;;;;4.80;1.47;;;;;;;21.02;50.12;98589.84;1682133;82;20966;-42
2021/09/19 04:17:51;;;;;;;15.00;6.53;;;;;;;21.05;49.38;98588.22;1697451;81;21074;-48
2021/09/19 04:20:19;;;;;;;9.68;4.47;;;;;;;21.06;48.25;98587.21;1702571;82;21076;-44
2021/09/19 04:22:47;;;;;;;6.50;4.05;;;;;;;21.03;45.81;98584.84;1702786;82;21326;-44
2021/09/19 04:25:15;;;;;;;4.97;3.52;;;;;;;20.93;45.25;98599.56;1694692;82;21221;-44
2021/09/19 04:27:43;;;;;;;6.25;3.67;;;;;;;20.86;46.80;98597.58;1684018;83;21055;-45
2021/09/19 04:30:11;;;;;;;4.90;3.27;;;;;;;20.82;48.24;98600.20;1693499;82;21096;-44
2021/09/19 04:32:38;;;;;;;5.25;2.98;;;;;;;20.79;48.78;98594.62;1694818;82;20998;-45
2021/09/19 04:35:06;;;;;;;7.45;2.72;;;;;;;20.78;48.92;98587.11;1703698;82;20962;-46
2021/09/19 04:37:34;;;;;;;3.42;2.52;;;;;;;20.76;48.89;98585.07;1681540;82;21063;-44
2021/09/19 04:40:00;;;;;;;4.30;2.50;;;;;;;20.75;48.87;98578.02;1700457;82;21033;-45
2021/09/19 04:42:27;;;;;;;3.37;2.60;;;;;;;20.73;48.81;98577.83;1695214;83;21057;-45
2021/09/19 04:44:54;;;;;;;2.58;2.20;;;;;;;20.72;48.82;98582.31;1701367;82;21035;-44
2021/09/19 04:47:20;;;;;;;9.83;2.83;;;;;;;20.70;48.76;98580.28;1630026;85;21124;-48
2021/09/19 04:49:47;;;;;;;2.60;2.40;;;;;;;20.72;48.74;98581.48;1647081;86;22299;-45
2021/09/19 04:52:13;;;;;;;3.52;2.30;;;;;;;20.71;48.68;98585.98;1660414;83;20975;-44
2021/09/19 04:54:41;;;;;;;2.00;1.80;;;;;;;20.72;48.68;98590.33;1683836;83;21027;-44
2021/09/19 04:57:08;;;;;;;3.58;1.82;;;;;;;20.72;48.66;98588.99;1678399;83;21067;-44
2021/09/19 04:59:35;;;;;;;2.25;1.82;;;;;;;20.73;48.59;98592.53;1691250;82;21229;-46
2021/09/19 05:02:03;;;;;;;1.90;1.60;;;;;;;20.74;48.52;98593.70;1683080;83;21121;-46
2021/09/19 05:04:32;;;;;;;3.47;1.42;;;;;;;20.74;48.50;98588.86;1663734;83;20965;-44
2021/09/19 05:07:00;;;;;;;1.95;1.70;;;;;;;20.74;48.48;98588.35;1721975;81;21064;-48
2021/09/19 05:09:27;;;;;;;2.35;1.57;;;;;;;20.74;48.47;98587.02;1690638;82;21055;-44
2021/09/19 05:11:55;;;;;;;4.47;1.60;;;;;;;20.76;48.73;98586.88;1707977;82;21475;-44
2021/09/19 05:14:23;;;;;;;3.80;1.62;;;;;;;20.78;49.12;98591.62;1709219;82;21144;-44
2021/09/19 05:16:51;;;;;;;2.52;1.47;;;;;;;20.80;49.22;98582.13;1698160;82;21048;-44
2021/09/19 05:19:19;;;;;;;5.80;1.87;;;;;;;20.82;49.17;98584.98;1687202;82;21118;-43
2021/09/19 05:21:47;;;;;;;1.95;1.40;;;;;;;20.85;49.10;98585.22;1685115;82;21868;-45
2021/09/19 05:24:14;;;;;;;7.22;1.50;;;;;;;20.88;49.01;98590.25;1676007;83;21086;-44
2021/09/19 05:26:42;;;;;;;2.65;1.40;;;;;;;20.89;48.93;98586.61;1643790;85;21151;-44
2021/09/19 05:29:09;;;;;;;2.77;1.30;;;;;;;20.90;48.85;98585.13;1665064;83;21252;-45
2021/09/19 05:31:35;;;;;;;5.20;1.50;;;;;;;20.92;48.96;98583.66;1656639;83;21095;-43
2021/09/19 05:34:04;;;;;;;4.03;1.57;;;;;;;20.92;49.09;98593.84;1675140;83;21020;-43
2021/09/19 05:36:30;;;;;;;3.83;1.52;;;;;;;20.94;49.16;98595.05;1671906;83;21026;-44
2021/09/19 05:38:58;;;;;;;2.90;1.82;;;;;;;20.96;49.30;98593.06;1653096;84;21012;-47
2021/09/19 05:41:24;;;;;;;2.65;1.57;;;;;;;20.99;49.39;98590.11;1668038;83;21573;-46
2021/09/19 05:43:51;;;;;;;4.12;2.05;;;;;;;21.02;49.48;98588.50;1665516;83;21056;-45
2021/09/19 05:46:18;;;;;;;6.30;1.50;;;;;;;21.06;49.39;98584.53;1662616;83;21440;-46
2021/09/19 05:48:44;;;;;;;2.33;1.40;;;;;;;21.12;49.41;98592.50;1669825;83;21110;-45
2021/09/19 05:51:11;;;;;;;3.70;1.40;;;;;;;21.17;49.44;98589.41;1642666;84;21093;-47
2021/09/19 05:53:38;;;;;;;8.45;2.00;;;;;;;21.22;49.43;98593.33;1685261;82;21045;-44
2021/09/19 05:56:05;;;;;;;3.17;1.45;;;;;;;21.28;49.29;98591.89;1676413;82;21067;-47
2021/09/19 05:58:31;;;;;;;3.55;1.72;;;;;;;21.32;49.20;98593.31;1671084;82;21581;-44
2021/09/19 06:00:59;;;;;;;8.05;1.45;;;;;;;21.37;49.18;98592.38;1670093;83;21130;-46
2021/09/19 06:03:26;;;;;;;2.83;1.30;;;;;;;21.43;49.12;98590.45;1667165;83;21181;-42
2021/09/19 06:05:52;;;;;;;2.98;1.35;;;;;;;21.48;48.90;98585.53;1673366;83;22363;-44
2021/09/19 06:08:21;;;;;;;5.50;1.30;;;;;;;21.54;48.75;98582.79;1675131;83;21035;-46
2021/09/19 06:10:47;;;;;;;3.50;1.60;;;;;;;21.60;48.64;98576.00;1686641;82;21781;-47
2021/09/19 06:13:15;;;;;;;4.97;2.08;;;;;;;21.65;48.54;98573.25;1691756;82;21128;-45
2021/09/19 06:15:42;;;;;;;6.00;2.17;;;;;;;21.68;49.34;98577.45;1693548;82;21168;-44
2021/09/19 06:18:10;;;;;;;3.90;1.80;;;;;;;21.70;49.87;98574.13;1685974;82;21044;-46
2021/09/19 06:20:36;;;;;;;5.85;2.08;;;;;;;21.74;50.04;98571.52;1691219;82;20992;-45
2021/09/19 06:23:04;;;;;;;8.83;1.95;;;;;;;21.78;49.93;98572.06;1664618;83;21982;-47
2021/09/19 06:25:30;;;;;;;6.87;1.98;;;;;;;21.80;49.98;98576.26;1657119;83;21000;-44
2021/09/19 06:27:57;;;;;;;5.22;1.95;;;;;;;21.83;50.23;98578.65;1638650;84;21047;-43
2021/09/19 06:30:26;;;;;;;7.72;2.12;;;;;;;21.86;49.80;98571.66;1646913;84;20964;-47
2021/09/19 06:32:54;;;;;;;4.55;1.75;;;;;;;21.89;49.85;98568.69;1647703;84;21052;-44
2021/09/19 06:35:22;;;;;;;8.90;1.70;;;;;;;21.94;49.91;98571.41;1649841;84;21499;-44
2021/09/19 06:37:49;;;;;;;14.93;2.08;;;;;;;21.96;50.01;98568.94;1672278;83;21047;-44
2021/09/19 06:40:15;;;;;;;10.35;1.98;;;;;;;21.99;50.17;98571.80;1662817;83;21812;-42
2021/09/19 06:42:43;;;;;;;10.58;2.22;;;;;;;21.99;49.74;98569.98;1623809;86;21135;-41
2021/09/19 06:45:11;;;;;;;10.13;2.15;;;;;;;22.00;50.01;98577.52;1679086;83;21104;-42
2021/09/19 06:47:41;;;;;;;5.87;1.60;;;;;;;22.03;50.13;98574.04;1653781;84;21593;-42
2021/09/19 06:50:09;;;;;;;6.83;1.52;;;;;;;22.08;49.88;98569.08;1664962;84;21097;-45
2021/09/19 06:52:36;;;;;;;3.77;1.52;;;;;;;22.14;49.64;98567.66;1666380;83;21077;-42
2021/09/19 06:55:05;;;;;;;34.85;19.30;;;;;;;22.21;49.38;98567.39;1697295;82;21143;-42
2021/09/19 06:57:31;;;;;;;10.43;6.50;;;;;;;22.25;48.52;98566.08;1688515;82;21151;-42
2021/09/19 06:59:58;;;;;;;7.92;4.90;;;;;;;22.24;46.23;98565.75;1699385;82;20993;-42
2021/09/19 07:02:26;;;;;;;5.17;3.40;;;;;;;22.15;44.49;98561.28;1691111;82;21065;-43
2021/09/19 07:04:53;;;;;;;4.30;3.50;;;;;;;22.01;45.74;98561.80;1696836;82;21175;-42
2021/09/19 07:07:19;;;;;;;5.28;3.00;;;;;;;21.92;47.47;98560.84;1684115;83;21569;-42
2021/09/19 07:09:46;;;;;;;2.72;2.50;;;;;;;21.87;48.05;98559.97;1666526;83;21111;-44
2021/09/19 07:12:13;;;;;;;5.55;3.10;;;;;;;21.84;48.27;98553.56;1658505;85;21784;-42
2021/09/19 07:14:39;;;;;;;5.12;3.30;;;;;;;21.81;48.92;98557.88;1665197;82;21116;-43
2021/09/19 07:17:07;;;;;;;7.50;2.40;;;;;;;21.82;48.85;98558.70;1677183;83;21058;-43
2021/09/19 07:19:35;;;;;;;4.03;2.77;;;;;;;21.81;48.46;98553.86;1675066;83;21802;-42
2021/09/19 07:22:04;;;;;;;2.62;2.17;;;;;;;21.79;48.54;98551.83;1730781;81;21078;-43
2021/09/19 07:24:32;;;;;;;2.45;1.80;;;;;;;21.78;48.48;98551.47;1729759;81;21071;-45
2021/09/19 07:26:58;;;;;;;2.37;1.70;;;;;;;21.80;48.54;98554.84;1743942;80;21145;-44
2021/09/19 07:29:26;;;;;;;2.08;1.80;;;;;;;21.82;48.25;98554.22;1724892;81;21762;-44
2021/09/19 07:31:53;;;;;;;2.05;1.90;;;;;;;21.86;48.08;98548.90;1718985;80;21387;-44
2021/09/19 07:34:21;;;;;;;3.25;1.70;;;;;;;21.86;47.95;98548.06;1706946;80;21022;-44
2021/09/19 07:36:48;;;;;;;4.72;2.17;;;;;;;21.88;48.19;98544.73;1732696;80;21034;-44
2021/09/19 07:39:15;;;;;;;1.87;1.70;;;;;;;21.94;48.24;98554.00;1715954;81;21015;-43
2021/09/19 07:41:44;;;;;;;3.22;1.72;;;;;;;22.00;47.78;98554.75;1716327;82;21078;-44
2021/09/19 07:44:11;;;;;;;3.27;1.57;;;;;;;22.02;47.76;98551.42;1719645;81;21141;-43
2021/09/19 07:46:37;;;;;;;1.92;1.72;;;;;;;22.05;47.70;98553.80;1721946;81;21578;-45
2021/09/19 07:49:06;;;;;;;3.05;1.92;;;;;;;22.10;47.65;98554.19;1737817;80;21034;-45
2021/09/19 07:51:33;;;;;;;4.58;1.92;;;;;;;22.16;47.87;98552.27;1728764;81;21034;-47
2021/09/19 07:54:01;;;;;;;2.20;2.02;;;;;;;22.17;47.52;98553.93;1727868;81;21146;-45
2021/09/19 07:56:27;;;;;;;2.98;2.05;;;;;;;22.19;47.73;98557.33;1741652;81;21101;-43
2021/09/19 07:58:54;;;;;;;3.15;1.77;;;;;;;22.23;47.56;98553.34;1724443;81;21355;-44
2021/09/19 08:01:21;;;;;;;40.83;11.88;;;;;;;22.26;47.76;98562.92;1738630;80;22216;-43
2021/09/19 08:03:47;;;;;;;9.25;4.95;;;;;;;22.29;48.02;98561.80;1730847;81;21057;-45
2021/09/19 08:06:15;;;;;;;10.65;4.17;;;;;;;22.32;47.66;98560.16;1730358;81;21182;-47
2021/09/19 08:08:42;;;;;;;5.72;3.42;;;;;;;22.33;48.00;98565.37;1715950;80;20984;-46
2021/09/19 08:11:09;;;;;;;4.10;3.15;;;;;;;22.35;48.06;98564.71;1733089;81;21802;-48
2021/09/19 08:13:37;;;;;;;7.42;3.10;;;;;;;22.38;48.02;98558.22;1728418;80;21559;-44
2021/09/19 08:16:04;;;;;;;4.28;2.55;;;;;;;22.39;47.96;98558.55;1706531;81;21015;-46
2021/09/19 08:18:30;;;;;;;6.78;3.02;;;;;;;22.43;48.17;98563.97;1727861;80;21517;-44
2021/09/19 08:20:57;;;;;;;2.27;2.08;;;;;;;22.44;48.07;98560.27;1728420;79;21125;-44
2021/09/19 08:23:23;;;;;;;2.42;2.08;;;;;;;22.45;48.05;98562.80;1701448;81;22052;-46
2021/09/19 08:25:50;;;;;;;3.83;1.87;;;;;;;22.47;47.95;98557.30;1729060;81;21038;-45
2021/09/19 08:28:17;;;;;;;2.77;1.62;;;;;;;22.48;48.04;98557.65;1729708;80;21035;-47
2021/09/19 08:30:45;;;;;;;5.03;1.90;;;;;;;22.47;47.61;98549.76;1730926;81;21011;-45
2021/09/19 08:33:12;;;;;;;1.80;1.70;;;;;;;22.44;47.44;98543.72;1727613;80;21066;-45
2021/09/19 08:35:40;;;;;;;3.25;1.77;;;;;;;22.42;47.49;98540.83;1727455;80;21038;-43
2021/09/19 08:38:06;;;;;;;6.83;2.05;;;;;;;22.40;47.57;98540.14;1726130;81;21054;-44
2021/09/19 08:40:33;;;;;;;3.02;1.90;;;;;;;22.37;47.76;98543.13;1734199;81;21028;-44
2021/09/19 08:43:04;;;;;;;3.20;1.75;;;;;;;22.32;47.94;98541.40;1728411;80;21050;-45
2021/09/19 08:45:30;;;;;;;4.12;1.98;;;;;;;22.32;48.07;98533.36;1710688;80;20984;-44
2021/09/19 08:47:57;;;;;;;3.00;1.82;;;;;;;22.30;48.17;98528.66;1738544;79;21074;-46
2021/09/19 08:50:23;;;;;;;4.22;1.92;;;;;;;22.29;48.22;98529.64;1727670;80;21115;-46
2021/09/19 08:52:50;;;;;;;4.70;1.50;;;;;;;22.26;48.26;98536.13;1731180;80;20999;-44
2021/09/19 08:55:16;;;;;;;2.10;1.62;;;;;;;22.24;48.51;98528.23;1730239;80;24345;-47
2021/09/19 08:57:43;;;;;;;3.25;2.05;;;;;;;22.26;48.53;98522.73;1726082;80;21942;-47
2021/09/19 09:00:12;;;;;;;92.08;54.50;;;;;;;22.30;48.42;98520.62;1725172;81;21920;-43
2021/09/19 09:02:50;;;;;;;30.02;18.10;;;;;;;22.32;48.34;98521.30;1731472;79;21055;-46
2021/09/19 09:05:28;;;;;;;18.80;12.53;;;;;;;22.33;48.33;98518.98;1724814;81;21647;-45
2021/09/19 09:07:57;;;;;;;14.03;9.70;;;;;;;22.35;48.43;98518.32;1728962;81;21137;-47
2021/09/19 09:10:43;;;;;;;10.60;7.87;;;;;;;22.40;48.40;98524.89;1732394;80;22304;-46
2021/09/19 09:13:14;;;;;;;10.25;6.40;;;;;;;22.47;48.32;98533.17;1728548;81;21503;-43
2021/09/19 09:15:45;;;;;;;32.33;21.00;;;;;;;22.51;48.20;98517.14;1724943;81;21420;-43
2021/09/19 09:18:15;;;;;;;24.35;17.05;;;;;;;22.55;48.12;98518.50;1707460;81;22282;-44
2021/09/19 09:21:03;;;;;;;19.40;13.43;;;;;;;22.60;48.08;98521.56;1726197;81;21390;-45
2021/09/19 09:23:38;;;;;;;15.13;11.12;;;;;;;22.65;48.00;98520.27;1726526;81;20999;-44
2021/09/19 09:26:24;;;;;;;12.13;8.48;;;;;;;22.70;47.88;98516.13;1726064;82;21026;-44
2021/09/19 09:29:06;;;;;;;9.00;6.85;;;;;;;22.74;47.80;98509.95;1707070;81;21143;-42
2021/09/19 09:31:36;;;;;;;10.15;6.65;;;;;;;22.78;47.65;98514.02;1698196;81;21106;-44
2021/09/19 09:34:09;;;;;;;7.87;5.28;;;;;;;22.82;47.68;98514.03;1724986;80;21058;-42
2021/09/19 09:37:00;;;;;;;4.55;4.15;;;;;;;22.85;47.65;98507.02;1719961;80;21067;-44
2021/09/19 09:39:37;;;;;;;6.08;3.72;;;;;;;22.90;47.67;98505.22;1695823;81;21071;-42
2021/09/19 09:42:16;;;;;;;4.65;3.37;;;;;;;22.95;47.59;98505.08;1719471;81;20995;-45
2021/09/19 09:44:52;;;;;;;4.05;3.00;;;;;;;22.99;47.56;98511.80;1720331;81;21512;-42
2021/09/19 09:47:22;;;;;;;3.17;2.75;;;;;;;23.04;47.22;98505.14;1724891;81;21052;-42
2021/09/19 09:49:54;;;;;;;5.85;2.87;;;;;;;23.04;45.99;98499.77;1735097;81;21045;-44
2021/09/19 09:52:27;;;;;;;2.75;2.47;;;;;;;23.02;45.61;98503.12;1705528;81;20970;-45
2021/09/19 09:55:00;;;;;;;8.40;2.47;;;;;;;22.98;46.03;98495.86;1725150;81;20995;-45
2021/09/19 09:57:44;;;;;;;4.58;2.25;;;;;;;22.97;46.22;98497.71;1723805;81;20999;-45
2021/09/19 10:00:14;;;;;;;3.87;2.40;;;;;;;22.99;46.37;98493.02;1726682;81;21137;-43
2021/09/19 10:02:44;;;;;;;3.87;2.30;;;;;;;23.03;46.49;98496.73;1727974;80;21033;-44
2021/09/19 10:05:12;;;;;;;2.70;2.37;;;;;;;23.03;46.45;98492.20;1728345;81;20997;-44
2021/09/19 10:07:41;;;;;;;2.55;2.35;;;;;;;23.04;46.58;98496.58;1729939;81;21802;-44
2021/09/19 10:10:11;;;;;;;7.22;2.42;;;;;;;23.07;46.58;98496.81;1709175;81;20999;-46
2021/09/19 10:12:37;;;;;;;2.90;2.20;;;;;;;23.08;46.88;98499.81;1721879;80;21126;-45
2021/09/19 10:15:06;;;;;;;2.45;2.08;;;;;;;23.07;47.11;98508.38;1701122;81;20990;-43
2021/09/19 10:17:35;;;;;;;3.87;2.40;;;;;;;23.07;47.13;98507.55;1725353;81;21107;-45
2021/09/19 10:20:17;;;;;;;4.58;2.50;;;;;;;23.06;47.46;98511.19;1725692;81;21572;-43
2021/09/19 10:23:27;;;;;;;2.72;2.35;;;;;;;23.06;47.99;98508.50;1725643;81;20995;-43
2021/09/19 10:26:00;;;;;;;2.67;1.95;;;;;;;23.04;47.76;98509.16;1726610;82;21028;-44
2021/09/19 10:28:34;;;;;;;2.15;1.70;;;;;;;23.00;47.45;98510.81;1728253;80;21082;-43
2021/09/19 10:31:15;;;;;;;1.90;1.80;;;;;;;23.00;47.28;98510.81;1728030;81;21850;-43
2021/09/19 10:34:01;;;;;;;3.00;2.67;;;;;;;23.02;47.62;98515.20;1718368;81;21497;-44
2021/09/19 10:36:36;;;;;;;1.80;1.70;;;;;;;23.02;47.49;98517.88;1728967;81;21931;-44
2021/09/19 10:39:39;;;;;;;1.47;1.40;;;;;;;23.03;47.41;98523.56;1725060;81;21435;-43
2021/09/19 10:42:20;;;;;;;1.17;1.10;;;;;;;23.04;47.32;98518.55;1673419;83;21003;-44
2021/09/19 10:44:52;;;;;;;2.40;1.10;;;;;;;23.04;47.13;98518.55;1652895;84;21416;-45
2021/09/19 10:47:41;;;;;;;1.07;0.90;;;;;;;23.04;46.50;98522.06;1727610;81;21034;-43
2021/09/19 10:50:25;;;;;;;1.42;0.60;;;;;;;23.05;46.07;98530.95;1684372;83;21943;-45
2021/09/19 10:53:18;;;;;;;0.60;0.60;;;;;;;23.06;45.89;98532.64;1654654;84;21136;-43
2021/09/19 10:56:03;;;;;;;0.60;0.55;;;;;;;23.04;45.77;98530.63;1670859;83;21555;-43
2021/09/19 10:58:31;;;;;;;2.15;0.50;;;;;;;23.03;45.56;98536.47;1667656;83;21973;-45
2021/09/19 11:01:15;;;;;;;0.72;0.70;;;;;;;23.02;45.36;98532.63;1732564;81;21146;-44
2021/09/19 11:03:46;;;;;;;0.70;0.70;;;;;;;22.99;45.36;98538.63;1727319;81;21065;-45
2021/09/19 11:06:34;;;;;;;0.70;0.68;;;;;;;23.00;45.17;98541.66;1695928;81;21232;-43
2021/09/19 11:09:25;;;;;;;0.53;0.40;;;;;;;22.98;45.02;98536.09;1726885;81;21141;-44
2021/09/19 11:12:17;;;;;;;0.60;0.60;;;;;;;22.97;44.63;98537.95;1729583;81;21019;-45
2021/09/19 11:15:02;;;;;;;1.80;0.68;;;;;;;22.96;44.57;98545.67;1728191;81;21039;-44
2021/09/19 11:17:33;;;;;;;1.12;0.90;;;;;;;22.95;44.58;98543.98;1725770;81;21098;-43
2021/09/19 11:20:21;;;;;;;0.88;0.80;;;;;;;22.92;44.63;98548.30;1730887;81;21040;-43
2021/09/19 11:22:52;;;;;;;1.05;0.88;;;;;;;22.91;44.86;98543.09;1722166;81;21166;-44
2021/09/19 11:25:21;;;;;;;3.22;2.17;;;;;;;22.92;44.58;98544.79;1727412;81;21046;-43
2021/09/19 11:27:51;;;;;;;3.20;2.12;;;;;;;22.89;44.44;98550.46;1728491;81;21463;-48
2021/09/19 11:30:21;;;;;;;2.15;1.95;;;;;;;22.86;44.37;98548.92;1704033;81;21027;-45
2021/09/19 11:32:47;;;;;;;2.22;1.77;;;;;;;22.84;45.04;98549.58;1728003;81;21109;-44
2021/09/19 11:35:17;;;;;;;2.25;1.35;;;;;;;22.81;45.17;98557.93;1722483;81;21058;-46
2021/09/19 11:37:45;;;;;;;3.90;1.15;;;;;;;22.78;45.34;98551.05;1728493;81;21606;-46
2021/09/19 11:40:22;;;;;;;2.33;1.10;;;;;;;22.78;45.07;98547.54;1685977;81;21018;-47